createdAt,value
2022-09-15T04:00:16.871Z,91.94
2022-09-15T04:03:19.488Z,91.94
2022-09-15T04:06:22.770Z,93.81
2022-09-15T04:09:25.647Z,93.44
2022-09-15T04:12:29.553Z,94.14
2022-09-15T04:15:31.911Z,92.99
2022-09-15T04:18:35.335Z,93.13
2022-09-15T04:21:37.607Z,92.31
2022-09-15T04:24:39.621Z,92.08
2022-09-15T04:27:41.920Z,92.48
2022-09-15T04:30:43.933Z,92.06
2022-09-15T04:33:47.089Z,91.90
2022-09-15T04:36:49.706Z,91.46
2022-09-15T04:39:52.209Z,91.55
2022-09-15T04:42:54.297Z,91.44
2022-09-15T04:45:56.590Z,91.10
2022-09-15T04:48:58.739Z,90.91
2022-09-15T04:52:01.141Z,90.59
2022-09-15T04:55:03.305Z,90.46
2022-09-15T04:58:05.600Z,89.84
2022-09-15T05:01:13.957Z,89.42
2022-09-15T05:04:16.427Z,89.68
2022-09-15T05:07:19.633Z,89.63
2022-09-15T05:10:22.168Z,89.62
2022-09-15T05:13:24.205Z,89.60
2022-09-15T05:16:29.086Z,89.76
2022-09-15T05:19:31.145Z,89.86
2022-09-15T05:22:33.425Z,89.97
2022-09-15T05:25:35.448Z,90.58
2022-09-15T05:28:37.928Z,91.46
2022-09-15T05:31:40.017Z,91.29
2022-09-15T05:34:42.361Z,92.23
2022-09-15T05:37:44.414Z,92.60
2022-09-15T05:40:46.822Z,92.89
2022-09-15T05:43:50.708Z,92.98
2022-09-15T05:46:53.071Z,93.23
2022-09-15T05:49:55.552Z,93.78
2022-09-15T05:52:58.319Z,94.40
2022-09-15T05:56:10.614Z,94.05
2022-09-15T05:59:13.094Z,93.98
2022-09-15T06:02:15.253Z,94.03
2022-09-15T06:05:17.609Z,93.70
2022-09-15T06:08:19.926Z,93.60
2022-09-15T06:11:28.704Z,93.80
2022-09-15T06:14:30.740Z,94.06
2022-09-15T06:17:33.076Z,93.74
2022-09-15T06:20:35.102Z,93.73
2022-09-15T06:23:38.248Z,94.26
2022-09-15T06:26:40.477Z,94.16
2022-09-15T06:29:42.788Z,94.29
2022-09-15T06:32:48.112Z,93.59
2022-09-15T06:35:50.596Z,93.72
2022-09-15T06:38:53.077Z,93.67
2022-09-15T06:42:02.727Z,93.90
2022-09-15T06:45:06.414Z,93.66
2022-09-15T06:48:23.926Z,93.20
2022-09-15T06:51:31.302Z,93.36
2022-09-15T06:54:33.873Z,93.48
2022-09-15T06:57:36.335Z,93.47
2022-09-15T07:00:38.681Z,93.51
2022-09-15T07:03:43.537Z,93.83
2022-09-15T07:06:46.067Z,94.10
2022-09-15T07:09:49.132Z,94.22
2022-09-15T07:12:51.635Z,94.17
2022-09-15T07:15:55.951Z,94.50
2022-09-15T07:19:01.150Z,96.91
2022-09-15T07:22:03.173Z,96.36
2022-09-15T07:25:05.963Z,96.30
2022-09-15T07:28:07.962Z,96.41
2022-09-15T07:31:13.286Z,96.39
2022-09-15T07:34:15.418Z,96.68
2022-09-15T07:37:18.287Z,95.25
2022-09-15T07:40:21.954Z,93.68
2022-09-15T07:43:24.289Z,91.04
2022-09-15T07:46:29.402Z,89.95
2022-09-15T07:49:31.693Z,90.18
2022-09-15T07:52:33.827Z,89.32
2022-09-15T07:55:36.104Z,89.50
2022-09-15T07:58:38.326Z,88.75
2022-09-15T08:01:40.640Z,87.35
2022-09-15T08:04:43.409Z,85.51
2022-09-15T08:07:45.472Z,85.21
2022-09-15T08:10:47.750Z,85.95
2022-09-15T08:13:51.077Z,83.50
2022-09-15T08:16:53.392Z,84.17
2022-09-15T08:19:55.469Z,82.79
2022-09-15T08:22:57.838Z,82.71
2022-09-15T08:26:00.299Z,81.05
2022-09-15T08:29:02.588Z,80.73
2022-09-15T08:32:05.187Z,80.81
2022-09-15T08:35:08.638Z,79.48
2022-09-15T08:38:11.071Z,79.14
2022-09-15T08:41:27.454Z,78.05
2022-09-15T08:44:38.251Z,79.13
2022-09-15T08:47:44.968Z,76.44
2022-09-15T08:50:52.314Z,76.88
2022-09-15T08:54:02.138Z,77.13
2022-09-15T08:57:06.221Z,75.95
2022-09-15T09:00:15.608Z,76.49
2022-09-15T09:03:17.677Z,76.66
2022-09-15T09:06:41.177Z,76.01
2022-09-15T09:10:24.942Z,75.06
2022-09-15T09:13:49.142Z,74.42
2022-09-15T09:17:10.633Z,73.00
2022-09-15T09:20:32.208Z,72.44
2022-09-15T09:23:49.706Z,71.46
2022-09-15T09:26:55.315Z,68.79
2022-09-15T09:30:07.466Z,66.09
2022-09-15T09:33:38.697Z,67.53
2022-09-15T09:36:40.842Z,64.97
2022-09-15T09:39:43.122Z,65.14
2022-09-15T09:42:45.425Z,62.92
2022-09-15T09:45:47.761Z,59.98
2022-09-15T09:48:58.690Z,59.98
2022-09-15T09:52:03.536Z,58.93
2022-09-15T09:55:25.311Z,60.72
2022-09-15T09:58:27.607Z,58.29
2022-09-15T10:01:30.375Z,58.16
2022-09-15T10:04:32.756Z,57.05
2022-09-15T10:07:41.118Z,57.05
2022-09-15T10:10:52.638Z,58.55
2022-09-15T10:13:56.122Z,59.58
2022-09-15T10:17:20.301Z,58.82
2022-09-15T10:20:28.193Z,57.50
2022-09-15T10:23:32.724Z,58.16
2022-09-15T10:26:34.830Z,57.30
2022-09-15T10:29:39.277Z,57.64
2022-09-15T10:32:42.698Z,57.07
2022-09-15T10:35:45.425Z,55.89
2022-09-15T10:39:24.969Z,56.20
2022-09-15T10:42:50.149Z,56.93
2022-09-15T10:46:04.851Z,55.76
2022-09-15T10:49:16.006Z,57.80
2022-09-15T10:52:58.410Z,57.48
2022-09-15T10:56:09.614Z,58.58
2022-09-15T10:59:30.379Z,58.00
2022-09-15T11:02:57.087Z,58.45
2022-09-15T11:06:27.021Z,58.43
2022-09-15T11:09:48.618Z,57.86
2022-09-15T11:13:15.291Z,59.14
2022-09-15T11:16:49.017Z,58.38
2022-09-15T11:20:25.207Z,59.83
2022-09-15T11:23:40.466Z,61.54
2022-09-15T11:26:52.112Z,62.50
2022-09-15T11:30:01.148Z,63.73
2022-09-15T11:33:23.696Z,64.92
2022-09-15T11:36:37.082Z,66.25
2022-09-15T11:40:09.121Z,68.38
2022-09-15T11:43:37.459Z,68.61
2022-09-15T11:47:02.629Z,69.21
2022-09-15T11:50:11.033Z,69.22
2022-09-15T11:53:25.943Z,70.04
2022-09-15T11:56:45.609Z,70.11
2022-09-15T11:59:54.709Z,70.52
2022-09-15T12:03:32.520Z,71.00
2022-09-15T12:06:51.623Z,69.72
2022-09-15T12:09:54.139Z,70.51
2022-09-15T12:13:00.067Z,70.82
2022-09-15T12:16:03.962Z,71.15
2022-09-15T12:19:18.516Z,71.20
2022-09-15T12:22:35.009Z,71.19
2022-09-15T12:26:14.295Z,71.64
2022-09-15T12:29:22.345Z,71.21
2022-09-15T12:32:33.402Z,71.28
2022-09-15T12:35:35.710Z,70.92
2022-09-15T12:38:38.010Z,71.24
2022-09-15T12:41:47.620Z,70.78
2022-09-15T12:45:04.133Z,70.73
2022-09-15T12:48:19.924Z,70.92
2022-09-15T12:51:25.228Z,70.79
2022-09-15T12:54:31.374Z,69.50
2022-09-15T12:57:36.146Z,69.06
2022-09-15T13:00:49.981Z,68.05
2022-09-15T13:04:05.594Z,68.03
2022-09-15T13:07:17.158Z,68.59
2022-09-15T13:10:27.843Z,86.40
2022-09-15T13:14:08.029Z,91.06
2022-09-15T13:17:18.614Z,90.59
2022-09-15T13:20:31.774Z,88.80
2022-09-15T13:23:39.810Z,88.50
2022-09-15T13:26:44.638Z,93.48
2022-09-15T13:29:59.929Z,94.04
2022-09-15T13:33:23.983Z,90.44
2022-09-15T13:40:37.973Z,94.01
2022-09-15T13:43:52.189Z,94.85
2022-09-15T13:47:09.460Z,95.64
2022-09-15T13:50:17.274Z,95.59
2022-09-15T13:53:32.214Z,93.95
2022-09-15T13:56:41.205Z,92.36
2022-09-15T13:59:43.268Z,96.68
2022-09-15T14:05:56.637Z,96.32
2022-09-15T14:09:03.927Z,98.45
2022-09-15T14:12:12.056Z,100.00
2022-09-15T14:15:22.709Z,100.00
2022-09-15T14:18:25.401Z,99.73
2022-09-15T14:21:31.909Z,100.00
2022-09-15T14:24:40.043Z,100.00
2022-09-15T14:27:45.511Z,100.00
2022-09-15T14:30:48.510Z,100.00
2022-09-15T14:33:50.574Z,100.00
2022-09-15T14:37:05.644Z,96.41
2022-09-15T14:40:23.431Z,97.01
2022-09-15T14:43:28.180Z,99.18
2022-09-15T14:46:38.180Z,97.54
2022-09-15T14:49:40.479Z,98.32
2022-09-15T14:53:07.537Z,100.00
2022-09-15T14:56:17.029Z,100.00
2022-09-15T14:59:41.658Z,100.00
2022-09-15T15:03:17.555Z,100.00
2022-09-15T15:06:29.829Z,100.00
2022-09-15T15:09:51.194Z,100.00
2022-09-15T15:12:58.695Z,98.64
2022-09-15T15:16:01.202Z,100.00
2022-09-15T15:19:03.522Z,100.00
2022-09-15T15:22:11.989Z,100.00
2022-09-15T15:25:22.059Z,100.00
2022-09-15T15:28:38.548Z,100.00
2022-09-15T15:31:40.653Z,100.00
2022-09-15T15:34:50.546Z,100.00
2022-09-15T15:38:11.068Z,100.00
